createdAt,value
2023-03-23T15:58:35.072Z,56.02
2023-03-23T16:01:05.959Z,56.42
2023-03-23T16:03:39.159Z,55.37
2023-03-23T16:06:10.449Z,55.51
2023-03-23T16:08:39.991Z,55.13
2023-03-23T16:11:07.594Z,54.81
2023-03-23T16:13:35.459Z,54.83
2023-03-23T16:16:03.348Z,55.18
2023-03-23T16:18:31.606Z,54.79
2023-03-23T16:20:59.097Z,54.95
2023-03-23T16:23:26.855Z,55.42
2023-03-23T16:25:55.735Z,55.99
2023-03-23T16:28:23.635Z,56.69
2023-03-23T16:30:51.047Z,56.52
2023-03-23T16:33:19.038Z,56.75
2023-03-23T16:35:46.576Z,56.00
2023-03-23T16:38:16.584Z,56.86
2023-03-23T16:40:44.950Z,56.54
2023-03-23T16:43:14.485Z,57.19
2023-03-23T16:45:45.891Z,56.53
2023-03-23T16:48:14.255Z,56.35
2023-03-23T16:50:42.284Z,55.82
2023-03-23T16:53:10.516Z,55.78
2023-03-23T16:55:39.043Z,55.30
2023-03-23T16:58:16.499Z,54.71
2023-03-23T17:00:48.494Z,55.19
2023-03-23T17:03:16.962Z,55.85
2023-03-23T17:05:45.114Z,56.78
2023-03-23T17:08:13.298Z,56.56
2023-03-23T17:10:41.678Z,56.40
2023-03-23T17:13:10.044Z,56.26
2023-03-23T17:15:38.276Z,55.90
2023-03-23T17:18:07.855Z,56.01
2023-03-23T17:20:36.101Z,56.34
2023-03-23T17:23:04.881Z,56.50
2023-03-23T17:25:32.769Z,56.88
2023-03-23T17:28:06.073Z,57.15
2023-03-23T17:30:34.666Z,56.84
2023-03-23T17:33:02.585Z,56.42
2023-03-23T17:35:31.800Z,56.85
2023-03-23T17:37:59.937Z,57.67
2023-03-23T17:40:27.589Z,57.82
2023-03-23T17:42:55.568Z,57.22
2023-03-23T17:45:23.265Z,57.55
2023-03-23T17:47:51.102Z,57.42
2023-03-23T17:50:18.788Z,57.57
2023-03-23T17:52:48.069Z,57.88
2023-03-23T17:55:15.633Z,57.86
2023-03-23T17:57:44.829Z,57.13
2023-03-23T18:00:13.867Z,56.58
2023-03-23T18:02:41.881Z,56.61
2023-03-23T18:05:09.502Z,57.30
2023-03-23T18:07:37.784Z,56.73
2023-03-23T18:10:07.397Z,56.51
2023-03-23T18:12:35.294Z,56.60
2023-03-23T18:15:02.741Z,56.71
2023-03-23T18:17:30.669Z,57.93
2023-03-23T18:19:58.003Z,57.23
2023-03-23T18:22:25.995Z,57.26
2023-03-23T18:24:53.515Z,57.40
2023-03-23T18:27:22.745Z,58.24
2023-03-23T18:29:50.086Z,58.35
2023-03-23T18:32:20.214Z,58.25
2023-03-23T18:34:48.183Z,58.26
2023-03-23T18:37:16.666Z,58.46
2023-03-23T18:39:44.260Z,58.51
2023-03-23T18:42:12.321Z,58.62
2023-03-23T18:44:41.378Z,59.36
2023-03-23T18:47:09.376Z,58.82
2023-03-23T18:49:36.964Z,58.51
2023-03-23T18:52:05.326Z,57.86
2023-03-23T18:54:32.768Z,58.58
2023-03-23T18:57:01.232Z,59.12
2023-03-23T18:59:31.629Z,59.51
2023-03-23T19:02:01.101Z,60.22
2023-03-23T19:04:28.655Z,60.33
2023-03-23T19:06:56.782Z,61.13
2023-03-23T19:09:24.500Z,62.24
2023-03-23T19:11:52.366Z,61.87
2023-03-23T19:14:19.931Z,61.70
2023-03-23T19:16:47.789Z,61.76
2023-03-23T19:19:16.672Z,62.17
2023-03-23T19:21:46.950Z,62.20
2023-03-23T19:24:14.852Z,61.21
2023-03-23T19:26:44.408Z,60.71
2023-03-23T19:31:46.423Z,59.84
2023-03-23T19:34:15.477Z,60.68
2023-03-23T19:36:53.756Z,59.97
2023-03-23T19:39:23.639Z,60.13
2023-03-23T19:41:51.515Z,60.38
2023-03-23T19:44:19.132Z,60.19
2023-03-23T19:46:47.076Z,59.85
2023-03-23T19:49:14.802Z,59.12
2023-03-23T19:51:44.240Z,59.42
2023-03-23T19:54:12.151Z,59.61
2023-03-23T19:56:40.251Z,59.66
2023-03-23T19:59:08.056Z,59.92
2023-03-23T20:01:35.956Z,60.22
2023-03-23T20:04:03.566Z,60.23
2023-03-23T20:06:31.776Z,59.94
2023-03-23T20:09:01.342Z,59.97
2023-03-23T20:11:30.077Z,59.93
2023-03-23T20:13:57.874Z,59.67
2023-03-23T20:16:26.196Z,60.96
2023-03-23T20:18:54.374Z,60.32
2023-03-23T20:21:23.209Z,60.67
2023-03-23T20:23:54.494Z,60.59
2023-03-23T20:26:25.930Z,60.88
2023-03-23T20:28:53.999Z,60.43
2023-03-23T20:31:24.519Z,60.53
2023-03-23T20:33:59.716Z,60.19
2023-03-23T20:36:29.136Z,60.49
2023-03-23T20:38:56.598Z,61.37
2023-03-23T20:41:26.519Z,61.49
2023-03-23T20:43:53.963Z,62.88
2023-03-23T20:46:22.089Z,63.13
2023-03-23T20:48:49.396Z,64.13
2023-03-23T20:51:17.246Z,65.24
2023-03-23T20:53:44.805Z,64.78
2023-03-23T20:56:12.692Z,64.59
2023-03-23T20:58:41.781Z,65.23
2023-03-23T21:01:10.811Z,64.46
2023-03-23T21:03:40.664Z,63.95
2023-03-23T21:06:08.802Z,63.64
2023-03-23T21:08:38.013Z,63.39
2023-03-23T21:11:09.534Z,63.45
2023-03-23T21:13:37.229Z,62.35
2023-03-23T21:16:06.971Z,62.65
2023-03-23T21:18:34.582Z,63.58
2023-03-23T21:21:02.342Z,63.15
2023-03-23T21:23:30.194Z,62.72
2023-03-23T21:26:00.856Z,62.49
2023-03-23T21:28:28.550Z,62.36
2023-03-23T21:31:00.168Z,61.97
2023-03-23T21:33:29.382Z,61.44
2023-03-23T21:35:57.424Z,62.23
2023-03-23T21:38:24.873Z,62.61
2023-03-23T21:40:53.174Z,62.40
2023-03-23T21:43:20.670Z,61.84
2023-03-23T21:45:48.837Z,61.96
2023-03-23T21:48:16.286Z,61.75
2023-03-23T21:50:45.713Z,62.43
2023-03-23T21:53:13.216Z,63.24
2023-03-23T21:55:41.813Z,64.17
2023-03-23T21:58:09.321Z,63.69
2023-03-23T22:00:37.274Z,63.44
2023-03-23T22:03:05.176Z,64.43
2023-03-23T22:05:33.137Z,65.70
2023-03-23T22:08:02.099Z,67.48
2023-03-23T22:10:30.214Z,69.23
2023-03-23T22:12:57.643Z,71.00
2023-03-23T22:15:25.559Z,71.47
2023-03-23T22:17:53.093Z,72.11
2023-03-23T22:20:21.131Z,71.93
2023-03-23T22:22:48.672Z,71.00
2023-03-23T22:25:18.091Z,70.20
2023-03-23T22:27:45.642Z,70.53
2023-03-23T22:30:14.402Z,70.33
2023-03-23T22:32:42.098Z,70.99
2023-03-23T22:35:10.047Z,70.40
2023-03-23T22:37:37.614Z,70.24
2023-03-23T22:40:06.466Z,69.93
2023-03-23T22:42:35.322Z,70.78
2023-03-23T22:45:03.200Z,71.07
2023-03-23T22:47:30.878Z,71.03
2023-03-23T22:49:58.791Z,70.63
2023-03-23T22:52:26.426Z,70.82
2023-03-23T22:54:54.129Z,71.25
2023-03-23T22:57:21.434Z,70.41
2023-03-23T22:59:51.020Z,69.91
2023-03-23T23:02:18.481Z,70.39
2023-03-23T23:04:46.402Z,70.59
2023-03-23T23:07:13.863Z,70.61
2023-03-23T23:09:41.742Z,70.85
2023-03-23T23:12:09.847Z,71.75
2023-03-23T23:14:39.846Z,72.78
2023-03-23T23:17:09.290Z,73.40
2023-03-23T23:19:37.305Z,73.45
2023-03-23T23:22:18.039Z,73.68
2023-03-23T23:24:47.214Z,72.16
2023-03-23T23:27:14.776Z,71.79
2023-03-23T23:29:42.659Z,71.90
2023-03-23T23:32:11.699Z,72.11
2023-03-23T23:34:39.539Z,71.95
2023-03-23T23:37:06.899Z,72.20
2023-03-23T23:39:34.731Z,71.43
2023-03-23T23:42:02.086Z,71.37
2023-03-23T23:44:29.966Z,71.28
2023-03-23T23:46:57.383Z,70.94
2023-03-23T23:49:26.757Z,70.23
2023-03-23T23:51:54.467Z,70.43
2023-03-23T23:54:22.528Z,70.00
2023-03-23T23:56:50.045Z,69.54
2023-03-23T23:59:17.861Z,70.02
